sensor_id;sensor_type;location;lat;lon;timestamp;P1;durP1;ratioP1;P2;durP2;ratioP2
68505;SDS011;55509;50.680;17.942;2022-11-14T00:02:23;55.00;;;32.60;;
68505;SDS011;55509;50.680;17.942;2022-11-14T00:05:24;53.40;;;30.70;;
68505;SDS011;55509;50.680;17.942;2022-11-14T00:08:26;65.20;;;33.20;;
68505;SDS011;55509;50.680;17.942;2022-11-14T00:11:27;58.20;;;31.50;;
68505;SDS011;55509;50.680;17.942;2022-11-14T00:14:29;61.30;;;33.30;;
68505;SDS011;55509;50.680;17.942;2022-11-14T00:20:32;58.80;;;34.80;;
68505;SDS011;55509;50.680;17.942;2022-11-14T00:23:34;55.00;;;28.30;;
68505;SDS011;55509;50.680;17.942;2022-11-14T00:26:35;44.60;;;28.60;;
68505;SDS011;55509;50.680;17.942;2022-11-14T00:29:37;48.90;;;26.10;;
68505;SDS011;55509;50.680;17.942;2022-11-14T00:32:39;43.10;;;23.60;;
68505;SDS011;55509;50.680;17.942;2022-11-14T00:35:40;40.40;;;24.40;;
68505;SDS011;55509;50.680;17.942;2022-11-14T00:38:51;51.10;;;27.90;;
68505;SDS011;55509;50.680;17.942;2022-11-14T00:41:54;44.70;;;23.10;;
68505;SDS011;55509;50.680;17.942;2022-11-14T00:44:56;55.40;;;27.60;;
68505;SDS011;55509;50.680;17.942;2022-11-14T00:47:58;50.40;;;28.00;;
68505;SDS011;55509;50.680;17.942;2022-11-14T00:50:59;41.40;;;24.40;;
68505;SDS011;55509;50.680;17.942;2022-11-14T00:54:01;45.10;;;26.50;;
68505;SDS011;55509;50.680;17.942;2022-11-14T00:57:03;40.30;;;22.80;;
68505;SDS011;55509;50.680;17.942;2022-11-14T01:00:05;45.90;;;28.10;;
68505;SDS011;55509;50.680;17.942;2022-11-14T01:03:08;44.60;;;25.80;;
68505;SDS011;55509;50.680;17.942;2022-11-14T01:09:11;38.40;;;22.10;;
68505;SDS011;55509;50.680;17.942;2022-11-14T01:12:13;42.80;;;22.00;;
68505;SDS011;55509;50.680;17.942;2022-11-14T01:15:14;42.10;;;23.90;;
68505;SDS011;55509;50.680;17.942;2022-11-14T01:21:22;32.60;;;20.50;;
68505;SDS011;55509;50.680;17.942;2022-11-14T01:27:25;42.90;;;24.90;;
68505;SDS011;55509;50.680;17.942;2022-11-14T01:30:26;40.70;;;26.40;;
68505;SDS011;55509;50.680;17.942;2022-11-14T01:33:28;43.50;;;24.30;;
68505;SDS011;55509;50.680;17.942;2022-11-14T01:36:30;47.90;;;26.70;;
68505;SDS011;55509;50.680;17.942;2022-11-14T01:39:31;34.60;;;23.30;;
68505;SDS011;55509;50.680;17.942;2022-11-14T01:42:33;38.40;;;22.60;;
68505;SDS011;55509;50.680;17.942;2022-11-14T01:52:13;45.50;;;26.80;;
68505;SDS011;55509;50.680;17.942;2022-11-14T01:55:19;37.00;;;22.70;;
68505;SDS011;55509;50.680;17.942;2022-11-14T01:58:21;48.70;;;27.00;;
68505;SDS011;55509;50.680;17.942;2022-11-14T02:01:23;46.80;;;28.50;;
68505;SDS011;55509;50.680;17.942;2022-11-14T02:04:26;30.00;;;18.00;;
68505;SDS011;55509;50.680;17.942;2022-11-14T02:07:33;39.10;;;22.30;;
68505;SDS011;55509;50.680;17.942;2022-11-14T02:10:37;52.90;;;25.50;;
68505;SDS011;55509;50.680;17.942;2022-11-14T02:13:39;37.10;;;26.00;;
68505;SDS011;55509;50.680;17.942;2022-11-14T02:16:41;34.00;;;20.30;;
68505;SDS011;55509;50.680;17.942;2022-11-14T02:19:44;36.50;;;21.10;;
68505;SDS011;55509;50.680;17.942;2022-11-14T02:23:08;37.50;;;20.40;;
68505;SDS011;55509;50.680;17.942;2022-11-14T02:26:11;36.80;;;21.20;;
68505;SDS011;55509;50.680;17.942;2022-11-14T02:29:13;34.90;;;19.90;;
68505;SDS011;55509;50.680;17.942;2022-11-14T02:32:14;32.80;;;21.30;;
68505;SDS011;55509;50.680;17.942;2022-11-14T02:35:16;42.80;;;24.40;;
68505;SDS011;55509;50.680;17.942;2022-11-14T02:38:17;40.80;;;22.70;;
68505;SDS011;55509;50.680;17.942;2022-11-14T02:41:19;41.90;;;22.70;;
68505;SDS011;55509;50.680;17.942;2022-11-14T02:44:20;31.50;;;21.00;;
68505;SDS011;55509;50.680;17.942;2022-11-14T02:47:22;29.40;;;19.10;;
68505;SDS011;55509;50.680;17.942;2022-11-14T02:50:25;34.70;;;19.40;;
68505;SDS011;55509;50.680;17.942;2022-11-14T02:53:26;38.30;;;25.00;;
68505;SDS011;55509;50.680;17.942;2022-11-14T02:56:28;36.80;;;23.80;;
68505;SDS011;55509;50.680;17.942;2022-11-14T02:59:29;33.70;;;19.80;;
68505;SDS011;55509;50.680;17.942;2022-11-14T03:02:31;33.70;;;21.50;;
68505;SDS011;55509;50.680;17.942;2022-11-14T03:05:33;35.60;;;22.00;;
68505;SDS011;55509;50.680;17.942;2022-11-14T03:11:37;37.00;;;21.10;;
68505;SDS011;55509;50.680;17.942;2022-11-14T03:14:39;42.40;;;26.80;;
68505;SDS011;55509;50.680;17.942;2022-11-14T03:17:40;39.80;;;23.00;;
68505;SDS011;55509;50.680;17.942;2022-11-14T03:20:42;40.70;;;22.50;;
68505;SDS011;55509;50.680;17.942;2022-11-14T03:23:43;45.60;;;27.20;;
68505;SDS011;55509;50.680;17.942;2022-11-14T03:26:45;43.30;;;25.40;;
68505;SDS011;55509;50.680;17.942;2022-11-14T03:29:47;38.40;;;22.60;;
68505;SDS011;55509;50.680;17.942;2022-11-14T03:32:49;45.50;;;25.30;;
68505;SDS011;55509;50.680;17.942;2022-11-14T03:35:51;43.60;;;25.30;;
68505;SDS011;55509;50.680;17.942;2022-11-14T03:38:53;43.60;;;26.30;;
68505;SDS011;55509;50.680;17.942;2022-11-14T03:41:55;36.90;;;21.30;;
68505;SDS011;55509;50.680;17.942;2022-11-14T03:44:56;45.90;;;27.50;;
68505;SDS011;55509;50.680;17.942;2022-11-14T03:47:58;45.20;;;25.70;;
68505;SDS011;55509;50.680;17.942;2022-11-14T03:50:59;44.40;;;21.70;;
68505;SDS011;55509;50.680;17.942;2022-11-14T03:54:01;39.40;;;24.00;;
68505;SDS011;55509;50.680;17.942;2022-11-14T03:57:03;42.50;;;24.00;;
68505;SDS011;55509;50.680;17.942;2022-11-14T04:00:04;38.40;;;22.50;;
68505;SDS011;55509;50.680;17.942;2022-11-14T04:03:06;48.20;;;24.00;;
68505;SDS011;55509;50.680;17.942;2022-11-14T04:06:08;47.10;;;26.00;;
68505;SDS011;55509;50.680;17.942;2022-11-14T04:09:10;39.70;;;20.50;;
68505;SDS011;55509;50.680;17.942;2022-11-14T04:15:13;47.50;;;25.50;;
68505;SDS011;55509;50.680;17.942;2022-11-14T04:18:15;41.30;;;21.80;;
68505;SDS011;55509;50.680;17.942;2022-11-14T04:21:16;38.90;;;22.50;;
68505;SDS011;55509;50.680;17.942;2022-11-14T04:24:18;43.00;;;24.20;;
68505;SDS011;55509;50.680;17.942;2022-11-14T04:27:19;38.30;;;21.70;;
68505;SDS011;55509;50.680;17.942;2022-11-14T04:30:21;42.60;;;24.90;;
68505;SDS011;55509;50.680;17.942;2022-11-14T04:33:23;45.90;;;22.90;;
68505;SDS011;55509;50.680;17.942;2022-11-14T04:36:24;40.20;;;20.10;;
68505;SDS011;55509;50.680;17.942;2022-11-14T04:39:26;39.30;;;23.40;;
68505;SDS011;55509;50.680;17.942;2022-11-14T04:42:27;38.40;;;22.20;;
68505;SDS011;55509;50.680;17.942;2022-11-14T04:45:29;38.20;;;22.40;;
68505;SDS011;55509;50.680;17.942;2022-11-14T04:48:30;36.00;;;20.70;;
68505;SDS011;55509;50.680;17.942;2022-11-14T04:51:32;35.80;;;23.00;;
68505;SDS011;55509;50.680;17.942;2022-11-14T04:54:33;31.60;;;17.40;;
68505;SDS011;55509;50.680;17.942;2022-11-14T04:57:35;36.00;;;21.90;;
68505;SDS011;55509;50.680;17.942;2022-11-14T05:03:38;37.90;;;23.30;;
68505;SDS011;55509;50.680;17.942;2022-11-14T05:06:40;43.90;;;27.00;;
68505;SDS011;55509;50.680;17.942;2022-11-14T05:09:41;55.10;;;26.80;;
68505;SDS011;55509;50.680;17.942;2022-11-14T05:12:43;41.80;;;22.60;;
68505;SDS011;55509;50.680;17.942;2022-11-14T05:15:45;51.00;;;31.80;;
68505;SDS011;55509;50.680;17.942;2022-11-14T05:21:48;49.50;;;26.10;;
68505;SDS011;55509;50.680;17.942;2022-11-14T05:24:50;37.00;;;20.60;;
68505;SDS011;55509;50.680;17.942;2022-11-14T05:27:51;42.10;;;24.50;;
68505;SDS011;55509;50.680;17.942;2022-11-14T05:30:59;48.40;;;24.70;;
68505;SDS011;55509;50.680;17.942;2022-11-14T05:34:01;39.10;;;19.90;;
68505;SDS011;55509;50.680;17.942;2022-11-14T05:37:03;43.10;;;23.40;;
68505;SDS011;55509;50.680;17.942;2022-11-14T05:40:05;49.80;;;26.90;;
68505;SDS011;55509;50.680;17.942;2022-11-14T05:43:07;41.00;;;21.10;;
68505;SDS011;55509;50.680;17.942;2022-11-14T05:46:09;45.20;;;24.00;;
68505;SDS011;55509;50.680;17.942;2022-11-14T05:49:12;47.90;;;27.10;;
68505;SDS011;55509;50.680;17.942;2022-11-14T05:52:13;46.50;;;25.70;;
68505;SDS011;55509;50.680;17.942;2022-11-14T05:55:15;46.10;;;24.10;;
68505;SDS011;55509;50.680;17.942;2022-11-14T05:58:17;36.80;;;20.80;;
68505;SDS011;55509;50.680;17.942;2022-11-14T06:04:20;35.40;;;20.70;;
68505;SDS011;55509;50.680;17.942;2022-11-14T06:10:23;46.70;;;20.50;;
68505;SDS011;55509;50.680;17.942;2022-11-14T06:13:25;45.90;;;19.80;;
68505;SDS011;55509;50.680;17.942;2022-11-14T06:16:27;40.40;;;23.30;;
68505;SDS011;55509;50.680;17.942;2022-11-14T06:19:28;33.40;;;20.80;;
68505;SDS011;55509;50.680;17.942;2022-11-14T06:22:30;38.60;;;21.70;;
68505;SDS011;55509;50.680;17.942;2022-11-14T06:25:33;39.50;;;23.30;;
68505;SDS011;55509;50.680;17.942;2022-11-14T06:28:35;43.20;;;19.60;;
68505;SDS011;55509;50.680;17.942;2022-11-14T06:31:36;44.10;;;23.40;;
68505;SDS011;55509;50.680;17.942;2022-11-14T06:34:38;30.10;;;16.50;;
68505;SDS011;55509;50.680;17.942;2022-11-14T06:37:39;35.00;;;19.90;;
68505;SDS011;55509;50.680;17.942;2022-11-14T06:40:41;34.60;;;22.00;;
68505;SDS011;55509;50.680;17.942;2022-11-14T06:43:43;42.30;;;18.90;;
68505;SDS011;55509;50.680;17.942;2022-11-14T06:46:46;33.80;;;19.50;;
68505;SDS011;55509;50.680;17.942;2022-11-14T06:49:48;36.80;;;20.50;;
68505;SDS011;55509;50.680;17.942;2022-11-14T06:52:50;34.20;;;18.80;;
68505;SDS011;55509;50.680;17.942;2022-11-14T07:02:05;35.80;;;19.20;;
68505;SDS011;55509;50.680;17.942;2022-11-14T07:05:06;34.00;;;20.60;;
68505;SDS011;55509;50.680;17.942;2022-11-14T07:11:14;32.80;;;18.50;;
68505;SDS011;55509;50.680;17.942;2022-11-14T07:14:23;29.40;;;17.90;;
68505;SDS011;55509;50.680;17.942;2022-11-14T07:17:24;33.90;;;18.70;;
68505;SDS011;55509;50.680;17.942;2022-11-14T07:20:26;39.10;;;23.10;;
68505;SDS011;55509;50.680;17.942;2022-11-14T07:23:28;37.40;;;20.50;;
68505;SDS011;55509;50.680;17.942;2022-11-14T07:26:31;39.00;;;21.80;;
68505;SDS011;55509;50.680;17.942;2022-11-14T07:29:32;26.80;;;18.60;;
68505;SDS011;55509;50.680;17.942;2022-11-14T07:35:38;40.20;;;19.70;;
68505;SDS011;55509;50.680;17.942;2022-11-14T07:38:40;39.40;;;21.50;;
68505;SDS011;55509;50.680;17.942;2022-11-14T07:41:42;35.80;;;20.10;;
68505;SDS011;55509;50.680;17.942;2022-11-14T07:44:43;37.90;;;20.90;;
68505;SDS011;55509;50.680;17.942;2022-11-14T07:47:45;32.70;;;21.60;;
68505;SDS011;55509;50.680;17.942;2022-11-14T07:50:47;35.70;;;20.50;;
68505;SDS011;55509;50.680;17.942;2022-11-14T07:53:50;42.50;;;23.40;;
68505;SDS011;55509;50.680;17.942;2022-11-14T07:56:53;38.60;;;21.70;;
68505;SDS011;55509;50.680;17.942;2022-11-14T07:59:55;34.30;;;20.20;;
68505;SDS011;55509;50.680;17.942;2022-11-14T08:02:56;31.20;;;17.90;;
68505;SDS011;55509;50.680;17.942;2022-11-14T08:06:06;37.20;;;21.60;;
68505;SDS011;55509;50.680;17.942;2022-11-14T08:09:12;34.10;;;19.50;;
68505;SDS011;55509;50.680;17.942;2022-11-14T08:16:02;32.00;;;18.70;;
68505;SDS011;55509;50.680;17.942;2022-11-14T08:19:19;28.50;;;20.10;;
68505;SDS011;55509;50.680;17.942;2022-11-14T08:22:29;35.00;;;21.60;;
68505;SDS011;55509;50.680;17.942;2022-11-14T08:25:37;32.30;;;19.40;;
68505;SDS011;55509;50.680;17.942;2022-11-14T08:28:39;31.00;;;21.00;;
68505;SDS011;55509;50.680;17.942;2022-11-14T08:31:48;36.50;;;23.20;;
68505;SDS011;55509;50.680;17.942;2022-11-14T08:34:49;30.00;;;18.90;;
68505;SDS011;55509;50.680;17.942;2022-11-14T08:40:52;28.10;;;20.10;;
68505;SDS011;55509;50.680;17.942;2022-11-14T08:47:51;36.80;;;23.60;;
68505;SDS011;55509;50.680;17.942;2022-11-14T08:51:05;31.60;;;23.40;;
68505;SDS011;55509;50.680;17.942;2022-11-14T08:54:07;28.10;;;21.70;;
68505;SDS011;55509;50.680;17.942;2022-11-14T08:57:09;30.70;;;22.50;;
68505;SDS011;55509;50.680;17.942;2022-11-14T09:00:12;29.30;;;22.60;;
68505;SDS011;55509;50.680;17.942;2022-11-14T09:03:25;21.50;;;18.70;;
68505;SDS011;55509;50.680;17.942;2022-11-14T09:06:27;22.30;;;17.30;;
68505;SDS011;55509;50.680;17.942;2022-11-14T09:09:32;27.50;;;20.40;;
68505;SDS011;55509;50.680;17.942;2022-11-14T09:12:36;25.60;;;19.10;;
68505;SDS011;55509;50.680;17.942;2022-11-14T09:15:38;24.10;;;18.90;;
68505;SDS011;55509;50.680;17.942;2022-11-14T09:18:42;28.40;;;18.50;;
68505;SDS011;55509;50.680;17.942;2022-11-14T09:21:44;28.00;;;20.00;;
68505;SDS011;55509;50.680;17.942;2022-11-14T09:24:46;32.30;;;22.60;;
68505;SDS011;55509;50.680;17.942;2022-11-14T09:27:48;25.40;;;18.50;;
68505;SDS011;55509;50.680;17.942;2022-11-14T09:30:59;31.70;;;23.20;;
68505;SDS011;55509;50.680;17.942;2022-11-14T09:34:01;30.80;;;21.70;;
68505;SDS011;55509;50.680;17.942;2022-11-14T09:37:03;31.90;;;22.00;;
68505;SDS011;55509;50.680;17.942;2022-11-14T09:40:09;26.90;;;20.80;;
68505;SDS011;55509;50.680;17.942;2022-11-14T09:46:41;29.10;;;21.00;;
68505;SDS011;55509;50.680;17.942;2022-11-14T09:49:48;22.70;;;20.00;;
68505;SDS011;55509;50.680;17.942;2022-11-14T09:52:55;22.20;;;20.00;;
68505;SDS011;55509;50.680;17.942;2022-11-14T09:56:01;25.00;;;20.20;;
68505;SDS011;55509;50.680;17.942;2022-11-14T09:59:04;21.50;;;18.70;;
68505;SDS011;55509;50.680;17.942;2022-11-14T10:12:04;18.50;;;16.80;;
68505;SDS011;55509;50.680;17.942;2022-11-14T10:35:06;17.90;;;15.90;;
68505;SDS011;55509;50.680;17.942;2022-11-14T10:38:20;17.30;;;15.50;;
68505;SDS011;55509;50.680;17.942;2022-11-14T10:41:44;18.00;;;16.30;;
68505;SDS011;55509;50.680;17.942;2022-11-14T10:45:01;15.40;;;13.60;;
68505;SDS011;55509;50.680;17.942;2022-11-14T10:51:33;16.30;;;13.80;;
68505;SDS011;55509;50.680;17.942;2022-11-14T10:54:44;11.70;;;10.60;;
68505;SDS011;55509;50.680;17.942;2022-11-14T10:57:53;12.90;;;11.80;;
68505;SDS011;55509;50.680;17.942;2022-11-14T11:00:55;11.30;;;10.20;;
68505;SDS011;55509;50.680;17.942;2022-11-14T11:03:56;10.90;;;9.90;;
68505;SDS011;55509;50.680;17.942;2022-11-14T11:10:19;13.10;;;11.80;;
68505;SDS011;55509;50.680;17.942;2022-11-14T11:13:49;11.50;;;10.50;;
68505;SDS011;55509;50.680;17.942;2022-11-14T11:20:23;12.80;;;11.70;;
68505;SDS011;55509;50.680;17.942;2022-11-14T11:23:30;11.30;;;10.20;;
68505;SDS011;55509;50.680;17.942;2022-11-14T11:26:31;12.60;;;11.40;;
68505;SDS011;55509;50.680;17.942;2022-11-14T11:29:33;10.70;;;9.70;;
68505;SDS011;55509;50.680;17.942;2022-11-14T11:32:35;12.40;;;11.30;;
68505;SDS011;55509;50.680;17.942;2022-11-14T11:35:36;12.70;;;11.60;;
68505;SDS011;55509;50.680;17.942;2022-11-14T11:38:47;11.70;;;10.80;;
68505;SDS011;55509;50.680;17.942;2022-11-14T11:41:49;12.90;;;10.60;;
68505;SDS011;55509;50.680;17.942;2022-11-14T11:44:58;12.30;;;11.30;;
68505;SDS011;55509;50.680;17.942;2022-11-14T11:51:15;12.50;;;10.90;;
68505;SDS011;55509;50.680;17.942;2022-11-14T11:54:23;12.00;;;10.70;;
68505;SDS011;55509;50.680;17.942;2022-11-14T11:57:32;12.70;;;11.50;;
68505;SDS011;55509;50.680;17.942;2022-11-14T12:00:37;11.40;;;10.30;;
68505;SDS011;55509;50.680;17.942;2022-11-14T12:03:43;12.70;;;11.50;;
68505;SDS011;55509;50.680;17.942;2022-11-14T12:07:23;11.90;;;10.90;;
68505;SDS011;55509;50.680;17.942;2022-11-14T12:10:23;12.40;;;11.10;;
68505;SDS011;55509;50.680;17.942;2022-11-14T12:30:24;11.90;;;10.70;;
68505;SDS011;55509;50.680;17.942;2022-11-14T12:33:34;10.30;;;9.50;;
68505;SDS011;55509;50.680;17.942;2022-11-14T12:36:41;12.60;;;11.40;;
68505;SDS011;55509;50.680;17.942;2022-11-14T12:39:53;13.30;;;11.90;;
68505;SDS011;55509;50.680;17.942;2022-11-14T12:43:02;15.60;;;14.30;;
68505;SDS011;55509;50.680;17.942;2022-11-14T12:46:06;15.90;;;14.30;;
68505;SDS011;55509;50.680;17.942;2022-11-14T12:52:48;15.50;;;13.90;;
68505;SDS011;55509;50.680;17.942;2022-11-14T12:55:53;21.50;;;17.00;;
68505;SDS011;55509;50.680;17.942;2022-11-14T13:02:25;23.30;;;16.60;;
68505;SDS011;55509;50.680;17.942;2022-11-14T13:15:49;19.60;;;16.40;;
68505;SDS011;55509;50.680;17.942;2022-11-14T13:25:42;24.80;;;17.90;;
68505;SDS011;55509;50.680;17.942;2022-11-14T13:28:45;26.40;;;17.50;;
68505;SDS011;55509;50.680;17.942;2022-11-14T13:31:49;27.20;;;18.00;;
68505;SDS011;55509;50.680;17.942;2022-11-14T13:35:01;20.40;;;16.90;;
68505;SDS011;55509;50.680;17.942;2022-11-14T13:51:05;28.50;;;19.50;;
68505;SDS011;55509;50.680;17.942;2022-11-14T13:54:14;25.80;;;16.80;;
68505;SDS011;55509;50.680;17.942;2022-11-14T14:20:48;38.00;;;23.90;;
68505;SDS011;55509;50.680;17.942;2022-11-14T14:31:09;42.50;;;24.10;;
68505;SDS011;55509;50.680;17.942;2022-11-14T14:34:30;43.60;;;26.00;;
68505;SDS011;55509;50.680;17.942;2022-11-14T14:37:32;41.90;;;22.30;;
68505;SDS011;55509;50.680;17.942;2022-11-14T14:43:36;39.60;;;21.80;;
68505;SDS011;55509;50.680;17.942;2022-11-14T14:49:39;45.20;;;23.40;;
68505;SDS011;55509;50.680;17.942;2022-11-14T14:52:41;35.30;;;22.10;;
68505;SDS011;55509;50.680;17.942;2022-11-14T14:55:49;45.90;;;27.90;;
68505;SDS011;55509;50.680;17.942;2022-11-14T14:58:54;42.90;;;23.40;;
68505;SDS011;55509;50.680;17.942;2022-11-14T15:01:56;50.30;;;22.20;;
68505;SDS011;55509;50.680;17.942;2022-11-14T15:04:59;40.90;;;25.30;;
68505;SDS011;55509;50.680;17.942;2022-11-14T15:08:01;40.00;;;24.90;;
68505;SDS011;55509;50.680;17.942;2022-11-14T15:11:03;36.10;;;23.30;;
68505;SDS011;55509;50.680;17.942;2022-11-14T15:17:41;48.20;;;25.00;;
68505;SDS011;55509;50.680;17.942;2022-11-14T15:21:04;48.00;;;29.60;;
68505;SDS011;55509;50.680;17.942;2022-11-14T15:27:22;45.60;;;26.70;;
68505;SDS011;55509;50.680;17.942;2022-11-14T15:33:34;47.30;;;26.60;;
68505;SDS011;55509;50.680;17.942;2022-11-14T15:43:34;50.00;;;31.90;;
68505;SDS011;55509;50.680;17.942;2022-11-14T15:46:41;54.90;;;33.60;;
68505;SDS011;55509;50.680;17.942;2022-11-14T15:50:03;51.30;;;32.70;;
68505;SDS011;55509;50.680;17.942;2022-11-14T15:53:13;54.40;;;32.70;;
68505;SDS011;55509;50.680;17.942;2022-11-14T15:56:21;61.10;;;38.90;;
68505;SDS011;55509;50.680;17.942;2022-11-14T15:59:24;64.10;;;34.80;;
68505;SDS011;55509;50.680;17.942;2022-11-14T16:02:28;56.90;;;31.10;;
68505;SDS011;55509;50.680;17.942;2022-11-14T16:05:32;63.80;;;42.30;;
68505;SDS011;55509;50.680;17.942;2022-11-14T16:11:35;57.00;;;34.00;;
68505;SDS011;55509;50.680;17.942;2022-11-14T16:17:42;62.90;;;37.20;;
68505;SDS011;55509;50.680;17.942;2022-11-14T16:20:46;66.60;;;37.20;;
68505;SDS011;55509;50.680;17.942;2022-11-14T16:23:52;71.90;;;39.20;;
68505;SDS011;55509;50.680;17.942;2022-11-14T16:26:58;64.20;;;39.60;;
68505;SDS011;55509;50.680;17.942;2022-11-14T16:29:59;74.50;;;43.90;;
68505;SDS011;55509;50.680;17.942;2022-11-14T16:36:03;65.70;;;42.20;;
68505;SDS011;55509;50.680;17.942;2022-11-14T16:42:11;50.30;;;30.30;;
68505;SDS011;55509;50.680;17.942;2022-11-14T16:45:13;61.30;;;37.60;;
68505;SDS011;55509;50.680;17.942;2022-11-14T16:48:15;65.00;;;36.30;;
68505;SDS011;55509;50.680;17.942;2022-11-14T16:54:18;66.10;;;37.00;;
68505;SDS011;55509;50.680;17.942;2022-11-14T17:00:22;59.90;;;38.20;;
68505;SDS011;55509;50.680;17.942;2022-11-14T17:03:23;79.40;;;42.70;;
68505;SDS011;55509;50.680;17.942;2022-11-14T17:06:25;65.20;;;41.30;;
68505;SDS011;55509;50.680;17.942;2022-11-14T17:09:28;69.80;;;41.70;;
68505;SDS011;55509;50.680;17.942;2022-11-14T17:12:30;72.80;;;40.70;;
68505;SDS011;55509;50.680;17.942;2022-11-14T17:15:34;71.30;;;41.80;;
68505;SDS011;55509;50.680;17.942;2022-11-14T17:18:36;74.90;;;40.20;;
68505;SDS011;55509;50.680;17.942;2022-11-14T17:24:40;71.70;;;40.80;;
68505;SDS011;55509;50.680;17.942;2022-11-14T17:27:42;73.30;;;46.60;;
68505;SDS011;55509;50.680;17.942;2022-11-14T17:33:49;74.80;;;44.30;;
68505;SDS011;55509;50.680;17.942;2022-11-14T17:36:52;70.40;;;42.70;;
68505;SDS011;55509;50.680;17.942;2022-11-14T17:39:53;76.60;;;46.90;;
68505;SDS011;55509;50.680;17.942;2022-11-14T17:42:55;78.20;;;43.10;;
68505;SDS011;55509;50.680;17.942;2022-11-14T17:45:57;74.20;;;44.00;;
68505;SDS011;55509;50.680;17.942;2022-11-14T17:48:59;66.90;;;39.10;;
68505;SDS011;55509;50.680;17.942;2022-11-14T17:55:04;79.20;;;42.50;;
68505;SDS011;55509;50.680;17.942;2022-11-14T17:58:06;70.70;;;39.00;;
68505;SDS011;55509;50.680;17.942;2022-11-14T18:01:09;77.10;;;42.10;;
68505;SDS011;55509;50.680;17.942;2022-11-14T18:04:16;68.40;;;44.30;;
68505;SDS011;55509;50.680;17.942;2022-11-14T18:07:18;81.40;;;47.80;;
68505;SDS011;55509;50.680;17.942;2022-11-14T18:10:20;91.10;;;52.10;;
68505;SDS011;55509;50.680;17.942;2022-11-14T18:13:22;85.50;;;50.90;;
68505;SDS011;55509;50.680;17.942;2022-11-14T18:16:24;79.00;;;46.40;;
68505;SDS011;55509;50.680;17.942;2022-11-14T18:19:26;70.70;;;41.40;;
68505;SDS011;55509;50.680;17.942;2022-11-14T18:22:27;76.20;;;44.50;;
68505;SDS011;55509;50.680;17.942;2022-11-14T18:25:35;68.20;;;39.80;;
68505;SDS011;55509;50.680;17.942;2022-11-14T18:28:37;64.90;;;39.10;;
68505;SDS011;55509;50.680;17.942;2022-11-14T18:31:41;63.80;;;39.50;;
68505;SDS011;55509;50.680;17.942;2022-11-14T18:34:42;61.30;;;39.30;;
68505;SDS011;55509;50.680;17.942;2022-11-14T18:40:46;66.40;;;38.00;;
68505;SDS011;55509;50.680;17.942;2022-11-14T18:43:54;51.70;;;32.90;;
68505;SDS011;55509;50.680;17.942;2022-11-14T18:46:56;72.70;;;37.90;;
68505;SDS011;55509;50.680;17.942;2022-11-14T18:49:58;67.40;;;38.10;;
68505;SDS011;55509;50.680;17.942;2022-11-14T18:53:01;62.00;;;32.90;;
68505;SDS011;55509;50.680;17.942;2022-11-14T18:56:10;59.30;;;34.40;;
68505;SDS011;55509;50.680;17.942;2022-11-14T18:59:16;52.40;;;32.90;;
68505;SDS011;55509;50.680;17.942;2022-11-14T19:02:19;67.80;;;38.90;;
68505;SDS011;55509;50.680;17.942;2022-11-14T19:05:22;66.30;;;38.20;;
68505;SDS011;55509;50.680;17.942;2022-11-14T19:08:23;61.90;;;38.00;;
68505;SDS011;55509;50.680;17.942;2022-11-14T19:11:25;61.70;;;37.50;;
68505;SDS011;55509;50.680;17.942;2022-11-14T19:14:45;58.90;;;35.60;;
68505;SDS011;55509;50.680;17.942;2022-11-14T19:17:50;64.80;;;38.20;;
68505;SDS011;55509;50.680;17.942;2022-11-14T19:24:01;66.70;;;38.00;;
68505;SDS011;55509;50.680;17.942;2022-11-14T19:27:04;76.00;;;43.40;;
68505;SDS011;55509;50.680;17.942;2022-11-14T19:33:12;61.20;;;36.70;;
68505;SDS011;55509;50.680;17.942;2022-11-14T19:36:18;60.70;;;37.30;;
68505;SDS011;55509;50.680;17.942;2022-11-14T19:39:26;63.20;;;38.30;;
68505;SDS011;55509;50.680;17.942;2022-11-14T19:42:28;66.00;;;36.50;;
68505;SDS011;55509;50.680;17.942;2022-11-14T19:45:34;62.50;;;36.10;;
68505;SDS011;55509;50.680;17.942;2022-11-14T19:48:41;66.00;;;39.00;;
68505;SDS011;55509;50.680;17.942;2022-11-14T19:51:43;69.40;;;38.90;;
68505;SDS011;55509;50.680;17.942;2022-11-14T19:54:45;57.50;;;32.10;;
68505;SDS011;55509;50.680;17.942;2022-11-14T19:57:49;75.50;;;42.50;;
68505;SDS011;55509;50.680;17.942;2022-11-14T20:00:51;66.70;;;35.40;;
68505;SDS011;55509;50.680;17.942;2022-11-14T20:03:54;62.50;;;35.00;;
68505;SDS011;55509;50.680;17.942;2022-11-14T20:06:58;76.90;;;42.30;;
68505;SDS011;55509;50.680;17.942;2022-11-14T20:10:00;79.60;;;37.00;;
68505;SDS011;55509;50.680;17.942;2022-11-14T20:13:03;64.60;;;37.70;;
68505;SDS011;55509;50.680;17.942;2022-11-14T20:16:15;71.00;;;39.70;;
68505;SDS011;55509;50.680;17.942;2022-11-14T20:19:21;72.50;;;40.00;;
68505;SDS011;55509;50.680;17.942;2022-11-14T20:22:23;68.20;;;41.00;;
68505;SDS011;55509;50.680;17.942;2022-11-14T20:25:24;73.00;;;35.50;;
68505;SDS011;55509;50.680;17.942;2022-11-14T20:28:26;73.90;;;41.00;;
68505;SDS011;55509;50.680;17.942;2022-11-14T20:31:29;67.60;;;37.30;;
68505;SDS011;55509;50.680;17.942;2022-11-14T20:34:32;71.60;;;39.50;;
68505;SDS011;55509;50.680;17.942;2022-11-14T20:37:34;64.80;;;36.60;;
68505;SDS011;55509;50.680;17.942;2022-11-14T20:40:36;59.90;;;37.20;;
68505;SDS011;55509;50.680;17.942;2022-11-14T20:43:38;67.20;;;39.00;;
68505;SDS011;55509;50.680;17.942;2022-11-14T20:46:50;57.10;;;34.40;;
68505;SDS011;55509;50.680;17.942;2022-11-14T20:50:00;61.80;;;34.00;;
68505;SDS011;55509;50.680;17.942;2022-11-14T20:53:02;66.00;;;36.80;;
68505;SDS011;55509;50.680;17.942;2022-11-14T20:56:04;74.00;;;39.30;;
68505;SDS011;55509;50.680;17.942;2022-11-14T20:59:07;64.90;;;35.30;;
68505;SDS011;55509;50.680;17.942;2022-11-14T21:02:10;53.60;;;32.30;;
68505;SDS011;55509;50.680;17.942;2022-11-14T21:05:12;64.30;;;39.00;;
68505;SDS011;55509;50.680;17.942;2022-11-14T21:11:17;67.90;;;38.10;;
68505;SDS011;55509;50.680;17.942;2022-11-14T21:14:18;65.50;;;35.10;;
68505;SDS011;55509;50.680;17.942;2022-11-14T21:17:20;58.40;;;35.70;;
68505;SDS011;55509;50.680;17.942;2022-11-14T21:20:21;68.00;;;38.40;;
68505;SDS011;55509;50.680;17.942;2022-11-14T21:26:26;62.40;;;35.50;;
68505;SDS011;55509;50.680;17.942;2022-11-14T21:29:30;65.60;;;35.60;;
68505;SDS011;55509;50.680;17.942;2022-11-14T21:32:31;61.60;;;36.30;;
68505;SDS011;55509;50.680;17.942;2022-11-14T21:35:36;69.70;;;37.20;;
68505;SDS011;55509;50.680;17.942;2022-11-14T21:38:38;58.60;;;34.10;;
68505;SDS011;55509;50.680;17.942;2022-11-14T21:41:40;66.50;;;36.60;;
68505;SDS011;55509;50.680;17.942;2022-11-14T21:44:42;68.70;;;37.30;;
68505;SDS011;55509;50.680;17.942;2022-11-14T21:47:43;64.40;;;33.70;;
68505;SDS011;55509;50.680;17.942;2022-11-14T21:50:45;68.80;;;35.30;;
68505;SDS011;55509;50.680;17.942;2022-11-14T21:53:47;55.10;;;32.70;;
68505;SDS011;55509;50.680;17.942;2022-11-14T21:56:50;64.00;;;34.60;;